Terminal Aerodrome Forecast
Issued by NWS

Home | Current Version | Previous Version | Text Only | Print | Product List | Glossary On
Versions: 1 2 3 4 5 6 7 8 9 10 11 12 13 14 15 16 17 18 19 20 21 22 23 24 25 26 27 28
000
FTUS45 KLKN 031128
TAFELY
TAF
KELY 031128Z 0312/0412 18006KT P6SM FEW100 SCT200
     FM032000 22010G20KT P6SM VCTS BKN100CB
      TEMPO 0322/0402 VRB14G25KT -TSRA SCT060CB BKN080
     FM040400 21006KT P6SM SCT080 BKN120=

USA.gov is the U.S. government's official web portal to all federal, state and local government web resources and services.